logo
Search for airport 
image banner adimage banner adimage banner ad
image banner ad

FADAWN - Dawn View

Located in , South Africa

ICAO - , IATA -

Data provided by Airmate  

General information

Coordinates: S29°40'27" E30°28'9"
Elevation is 2165 feet MSL.
 
View others Airports in Kwazulu-Natal

Operational data

Special qualification required
Current time UTC:
Current local time:
Weather at : FAPM - Pietermaritzburg ( 8 km )
TAF: TAF FAPM 240600Z 2407/2418 24004KT 9999 BKN025 TX22/2412Z TN16/2418Z BECMG 2410/2412 12006KT
View NOTAMs / SUP AIP / TFR affecting this airport [VIEW]
Communications frequencies: [VIEW]

Runways:

RWY identifierQFULength (ft)Width (ft)SurfaceLDA (ft)
11150°141166GRASS
29330°141166GRASS
02108366GRASS
20185°108366GRASS

Airport contact information

Address: South Africa

Satellite view of FADAWN